createdAt,value
2023-05-04T00:02:13.674Z,1.50
2023-05-04T00:04:43.163Z,1.63
2023-05-04T00:07:11.182Z,1.10
2023-05-04T00:09:39.586Z,1.20
2023-05-04T00:12:08.308Z,1.10
2023-05-04T00:14:37.417Z,1.40
2023-05-04T00:17:07.039Z,1.00
2023-05-04T00:19:36.453Z,1.20
2023-05-04T00:22:04.459Z,1.20
2023-05-04T00:24:32.774Z,1.20
2023-05-04T00:27:00.711Z,1.30
2023-05-04T00:29:29.044Z,1.73
2023-05-04T00:31:57.255Z,1.30
2023-05-04T00:34:25.912Z,1.23
2023-05-04T00:36:53.856Z,1.50
2023-05-04T00:39:22.240Z,1.33
2023-05-04T00:41:50.688Z,1.20
2023-05-04T00:44:19.177Z,1.30
2023-05-04T00:46:47.237Z,1.60
2023-05-04T00:49:16.011Z,1.25
2023-05-04T00:51:44.194Z,1.60
2023-05-04T00:54:13.075Z,1.52
2023-05-04T00:56:43.526Z,1.30
2023-05-04T00:59:13.960Z,1.40
2023-05-04T01:01:42.432Z,1.58
2023-05-04T01:04:11.423Z,1.60
2023-05-04T01:06:48.183Z,1.45
2023-05-04T01:09:28.584Z,1.58
2023-05-04T01:12:14.133Z,2.42
2023-05-04T01:14:43.958Z,1.50
2023-05-04T01:17:12.155Z,1.50
2023-05-04T01:19:40.553Z,1.25
2023-05-04T01:22:08.513Z,1.77
2023-05-04T01:24:37.153Z,1.75
2023-05-04T01:27:42.529Z,1.20
2023-05-04T01:30:26.747Z,1.20
2023-05-04T01:35:23.880Z,1.33
2023-05-04T01:37:51.739Z,1.05
2023-05-04T01:40:19.973Z,1.30
2023-05-04T01:42:47.837Z,1.13
2023-05-04T01:45:16.179Z,1.38
2023-05-04T01:47:44.474Z,1.48
2023-05-04T01:50:12.759Z,1.65
2023-05-04T01:52:40.640Z,1.92
2023-05-04T01:55:09.459Z,1.55
2023-05-04T01:57:37.410Z,1.42
2023-05-04T02:00:06.536Z,1.27
2023-05-04T02:02:46.868Z,1.30
2023-05-04T02:05:19.526Z,1.50
2023-05-04T02:07:47.579Z,1.63
2023-05-04T02:10:16.309Z,1.10
2023-05-04T02:12:44.350Z,1.70
2023-05-04T02:15:12.898Z,1.58
2023-05-04T02:17:41.017Z,1.40
2023-05-04T02:20:09.904Z,1.50
2023-05-04T02:22:37.830Z,1.58
2023-05-04T02:25:07.892Z,1.40
2023-05-04T02:27:38.010Z,1.50
2023-05-04T02:30:07.668Z,1.48
2023-05-04T02:32:36.830Z,1.52
2023-05-04T02:35:05.561Z,1.00
2023-05-04T02:37:33.479Z,1.08
2023-05-04T02:40:04.683Z,1.08
2023-05-04T02:42:32.749Z,1.13
2023-05-04T02:45:01.100Z,1.15
2023-05-04T02:47:29.192Z,1.10
2023-05-04T02:49:57.541Z,0.88
2023-05-04T02:52:25.487Z,1.10
2023-05-04T02:54:54.202Z,1.15
2023-05-04T02:57:22.162Z,1.23
2023-05-04T02:59:50.374Z,0.90
2023-05-04T03:02:18.334Z,0.88
2023-05-04T03:04:46.670Z,0.90
2023-05-04T03:07:14.664Z,0.80
2023-05-04T03:09:44.211Z,0.88
2023-05-04T03:12:13.846Z,1.00
2023-05-04T03:14:42.128Z,1.13
2023-05-04T03:17:10.108Z,1.05
2023-05-04T03:19:38.591Z,1.13
2023-05-04T03:22:07.725Z,1.20
2023-05-04T03:24:37.996Z,1.20
2023-05-04T03:27:06.036Z,1.10
2023-05-04T03:29:37.177Z,1.33
2023-05-04T03:32:05.913Z,1.38
2023-05-04T03:34:34.490Z,1.52
2023-05-04T03:37:05.773Z,1.60
2023-05-04T03:39:34.561Z,1.50
2023-05-04T03:42:02.822Z,2.28
2023-05-04T03:44:31.153Z,1.20
2023-05-04T03:46:59.164Z,1.52
2023-05-04T03:49:28.031Z,1.80
2023-05-04T03:51:56.153Z,1.52
2023-05-04T03:54:24.851Z,1.40
2023-05-04T03:56:53.246Z,2.85
2023-05-04T03:59:21.564Z,1.52
2023-05-04T04:01:49.849Z,1.58
2023-05-04T04:04:18.123Z,1.38
2023-05-04T04:06:46.839Z,2.28
2023-05-04T04:09:16.540Z,1.75
2023-05-04T04:11:44.647Z,1.60
2023-05-04T04:14:13.137Z,1.40
2023-05-04T04:16:41.391Z,1.50
2023-05-04T04:19:09.924Z,1.52
2023-05-04T04:21:37.998Z,1.63
2023-05-04T04:24:06.867Z,1.23
2023-05-04T04:26:35.444Z,1.63
2023-05-04T04:29:04.177Z,1.70
2023-05-04T04:31:32.265Z,1.52
2023-05-04T04:34:01.267Z,1.60
2023-05-04T04:36:29.789Z,1.60
2023-05-04T04:38:58.667Z,1.30
2023-05-04T04:41:26.844Z,1.83
2023-05-04T04:43:55.266Z,1.98
2023-05-04T04:46:23.417Z,1.75
2023-05-04T04:48:53.748Z,1.80
2023-05-04T04:51:22.088Z,1.83
2023-05-04T04:53:51.586Z,1.50
2023-05-04T04:56:19.860Z,1.70
2023-05-04T04:58:48.693Z,1.40
2023-05-04T05:01:18.274Z,1.42
2023-05-04T05:03:47.319Z,1.63
2023-05-04T05:06:15.559Z,1.73
2023-05-04T05:08:44.331Z,1.67
2023-05-04T05:11:13.318Z,1.42
2023-05-04T05:13:41.798Z,1.88
2023-05-04T05:16:09.992Z,1.75
2023-05-04T05:18:38.577Z,1.50
2023-05-04T05:21:07.897Z,2.30
2023-05-04T05:23:36.281Z,1.58
2023-05-04T05:26:04.410Z,2.10
2023-05-04T05:28:33.998Z,1.80
2023-05-04T05:31:02.216Z,1.73
2023-05-04T05:33:30.733Z,2.10
2023-05-04T05:35:58.909Z,1.55
2023-05-04T05:38:27.727Z,1.83
2023-05-04T05:40:55.900Z,2.30
2023-05-04T05:43:24.407Z,2.58
2023-05-04T05:45:52.716Z,2.97
2023-05-04T05:48:21.198Z,2.95
2023-05-04T05:50:49.332Z,2.78
2023-05-04T05:53:18.288Z,3.08
2023-05-04T05:55:47.488Z,3.58
2023-05-04T05:58:15.975Z,2.22
2023-05-04T06:00:44.129Z,3.20
2023-05-04T06:03:12.612Z,2.47
2023-05-04T06:05:40.918Z,3.17
2023-05-04T06:08:09.626Z,2.53
2023-05-04T06:10:37.745Z,2.67
2023-05-04T06:13:06.241Z,2.95
2023-05-04T06:15:35.448Z,3.17
2023-05-04T06:18:04.188Z,3.22
2023-05-04T06:20:32.540Z,5.47
2023-05-04T06:23:00.937Z,3.85
2023-05-04T06:25:29.140Z,3.67
2023-05-04T06:27:57.589Z,3.80
2023-05-04T06:30:25.829Z,3.45
2023-05-04T06:32:54.464Z,4.03
2023-05-04T06:35:22.624Z,3.35
2023-05-04T06:40:25.592Z,3.95
2023-05-04T06:42:54.162Z,3.65
2023-05-04T06:45:22.348Z,3.28
2023-05-04T06:47:51.034Z,4.22
2023-05-04T06:50:19.340Z,2.83
2023-05-04T06:52:47.774Z,3.10
2023-05-04T06:55:15.876Z,3.55
2023-05-04T06:57:44.313Z,2.78
2023-05-04T07:00:12.896Z,3.63
2023-05-04T07:02:41.652Z,3.00
2023-05-04T07:05:10.566Z,2.83
2023-05-04T07:07:39.214Z,2.90
2023-05-04T07:10:07.843Z,3.47
2023-05-04T07:12:36.362Z,3.47
2023-05-04T07:15:04.818Z,3.60
2023-05-04T07:17:33.366Z,3.60
2023-05-04T07:20:03.845Z,5.32
2023-05-04T07:22:33.405Z,3.88
2023-05-04T07:25:01.971Z,4.05
2023-05-04T07:27:30.842Z,3.70
2023-05-04T07:29:58.929Z,4.63
2023-05-04T07:32:27.792Z,3.83
2023-05-04T07:34:56.707Z,3.67
2023-05-04T07:37:25.192Z,3.33
2023-05-04T07:39:53.337Z,4.05
2023-05-04T07:42:24.082Z,3.42
2023-05-04T07:44:52.720Z,3.08
2023-05-04T07:47:21.272Z,3.40
2023-05-04T07:49:49.424Z,3.83
2023-05-04T07:52:17.913Z,3.47
2023-05-04T07:54:46.047Z,3.88
2023-05-04T07:57:14.531Z,3.35
2023-05-04T07:59:42.678Z,3.22
2023-05-04T08:02:11.894Z,3.95
2023-05-04T08:04:40.133Z,3.53
2023-05-04T08:07:08.606Z,2.95
2023-05-04T08:09:36.522Z,3.13
2023-05-04T08:12:04.937Z,3.08
2023-05-04T08:14:34.142Z,3.38
2023-05-04T08:17:03.232Z,3.10
2023-05-04T08:19:31.323Z,3.47
2023-05-04T08:22:00.774Z,3.35
2023-05-04T08:24:28.644Z,3.60
2023-05-04T08:27:07.255Z,4.07
2023-05-04T08:29:38.016Z,4.15
2023-05-04T08:32:06.468Z,3.88
2023-05-04T08:34:34.682Z,3.20
2023-05-04T08:37:02.862Z,3.30
2023-05-04T08:39:30.804Z,4.03
2023-05-04T08:41:59.227Z,3.75
2023-05-04T08:44:27.238Z,3.13
2023-05-04T08:46:57.444Z,2.97
2023-05-04T08:49:25.272Z,2.83
2023-05-04T08:51:53.557Z,2.40
2023-05-04T08:54:22.763Z,3.30
2023-05-04T08:56:55.467Z,3.10
2023-05-04T08:59:25.615Z,3.35
2023-05-04T09:01:57.729Z,3.63
2023-05-04T09:04:29.352Z,3.33
2023-05-04T09:06:58.845Z,3.23
2023-05-04T09:09:29.490Z,2.95
2023-05-04T09:11:59.329Z,3.58
2023-05-04T09:14:34.814Z,3.30
2023-05-04T09:17:04.391Z,3.58
2023-05-04T09:19:35.629Z,4.20
2023-05-04T09:22:15.246Z,4.18
2023-05-04T09:24:43.724Z,4.07
2023-05-04T09:27:13.501Z,3.90
2023-05-04T09:29:42.563Z,3.22
2023-05-04T09:32:14.413Z,4.47
2023-05-04T09:34:52.709Z,4.28
2023-05-04T09:37:22.341Z,4.35
2023-05-04T09:39:55.756Z,3.55
2023-05-04T09:42:24.940Z,5.38
2023-05-04T09:45:04.839Z,5.00
2023-05-04T09:47:37.012Z,4.40
2023-05-04T09:50:20.787Z,3.90
2023-05-04T09:52:50.668Z,4.10
2023-05-04T09:55:20.163Z,4.38
2023-05-04T09:57:49.671Z,3.83
2023-05-04T10:00:19.279Z,4.28
2023-05-04T10:02:49.132Z,4.78
2023-05-04T10:05:18.824Z,4.80
2023-05-04T10:07:47.449Z,4.20
2023-05-04T10:10:15.638Z,3.20
2023-05-04T10:12:45.237Z,3.78
2023-05-04T10:15:15.122Z,3.92
2023-05-04T10:18:00.326Z,3.92
2023-05-04T10:20:33.950Z,3.42
2023-05-04T10:23:30.404Z,3.72
2023-05-04T10:26:16.512Z,4.65
2023-05-04T10:29:28.730Z,4.40
2023-05-04T10:31:57.146Z,3.70
2023-05-04T10:34:28.498Z,3.30
2023-05-04T10:36:57.367Z,4.32
2023-05-04T10:39:27.690Z,3.30
2023-05-04T10:42:07.997Z,3.88
2023-05-04T10:44:49.628Z,3.78
2023-05-04T10:47:32.738Z,3.83
2023-05-04T10:52:32.305Z,4.25
2023-05-04T10:55:02.128Z,4.20
2023-05-04T10:57:30.675Z,3.70
2023-05-04T10:59:59.471Z,4.13
2023-05-04T11:02:30.972Z,3.78
2023-05-04T11:05:07.261Z,3.45
2023-05-04T11:07:39.982Z,3.15
2023-05-04T11:10:20.542Z,3.40
2023-05-04T11:12:48.822Z,3.65
2023-05-04T11:15:18.125Z,3.95
2023-05-04T11:17:53.165Z,3.22
2023-05-04T11:20:26.613Z,3.17
2023-05-04T11:22:55.123Z,3.28
2023-05-04T11:25:30.957Z,3.53
2023-05-04T11:27:59.032Z,3.63
2023-05-04T11:30:36.826Z,3.22
2023-05-04T11:33:15.640Z,3.20
2023-05-04T11:35:45.327Z,3.53
2023-05-04T11:38:20.351Z,3.38
2023-05-04T11:40:48.762Z,3.38
2023-05-04T11:43:17.713Z,3.42
2023-05-04T11:45:48.701Z,3.20
2023-05-04T11:48:18.754Z,4.22
2023-05-04T11:50:48.208Z,3.53
2023-05-04T11:53:21.938Z,3.35
2023-05-04T11:55:52.501Z,3.33
2023-05-04T11:58:27.268Z,3.53
2023-05-04T12:00:57.450Z,3.63
2023-05-04T12:03:44.018Z,5.03
2023-05-04T12:06:34.124Z,4.10
2023-05-04T12:09:04.979Z,3.72
2023-05-04T12:11:35.939Z,4.05
2023-05-04T12:14:05.464Z,3.75
2023-05-04T12:16:34.622Z,3.70
2023-05-04T12:19:07.247Z,3.40
2023-05-04T12:21:36.307Z,3.72
2023-05-04T12:24:05.722Z,4.03
2023-05-04T12:26:34.154Z,4.88
2023-05-04T12:29:02.117Z,3.58
2023-05-04T12:31:30.667Z,4.15
2023-05-04T12:33:58.657Z,3.25
2023-05-04T12:36:27.229Z,4.30
2023-05-04T12:38:55.152Z,4.00
2023-05-04T12:41:23.565Z,3.15
2023-05-04T12:43:51.548Z,4.07
2023-05-04T12:46:22.529Z,4.00
2023-05-04T12:48:50.917Z,5.47
2023-05-04T12:51:19.193Z,4.72
2023-05-04T12:53:47.245Z,4.20
2023-05-04T12:56:15.407Z,4.60
2023-05-04T12:58:43.508Z,4.07
2023-05-04T13:01:12.198Z,4.05
2023-05-04T13:03:40.412Z,4.00
2023-05-04T13:06:09.307Z,3.53
2023-05-04T13:08:37.289Z,3.50
2023-05-04T13:11:05.659Z,4.10
2023-05-04T13:13:34.997Z,3.25
2023-05-04T13:16:03.381Z,3.35
2023-05-04T13:18:31.293Z,4.35
2023-05-04T13:20:59.896Z,3.85
2023-05-04T13:23:27.830Z,3.67
2023-05-04T13:25:56.086Z,4.60
2023-05-04T13:28:24.020Z,4.00
2023-05-04T13:30:52.329Z,4.38
2023-05-04T13:33:28.695Z,4.32
2023-05-04T13:35:58.898Z,3.42
2023-05-04T13:38:27.332Z,3.42
2023-05-04T13:40:56.337Z,4.38
2023-05-04T13:43:25.065Z,4.25
2023-05-04T13:45:53.572Z,3.50
2023-05-04T13:48:21.455Z,3.13
2023-05-04T13:50:49.737Z,3.92
2023-05-04T13:53:17.687Z,3.30
2023-05-04T13:55:46.285Z,3.72
2023-05-04T13:58:14.167Z,3.00
2023-05-04T14:00:43.506Z,2.83
2023-05-04T14:03:11.801Z,3.13
2023-05-04T14:05:40.248Z,3.20
2023-05-04T14:08:08.177Z,3.00
2023-05-04T14:10:37.639Z,2.80
2023-05-04T14:13:05.903Z,3.70
2023-05-04T14:15:34.518Z,3.05
2023-05-04T14:18:03.128Z,3.17
2023-05-04T14:20:32.410Z,2.97
2023-05-04T14:23:00.405Z,3.50
2023-05-04T14:25:28.778Z,3.30
2023-05-04T14:27:56.783Z,3.45
2023-05-04T14:30:26.693Z,3.85
2023-05-04T14:32:56.011Z,3.03
2023-05-04T14:35:24.792Z,3.40
2023-05-04T14:37:53.551Z,3.03
2023-05-04T14:40:21.925Z,3.03
2023-05-04T14:42:49.922Z,3.63
2023-05-04T14:45:18.354Z,3.25
2023-05-04T14:47:46.400Z,3.53
2023-05-04T14:50:14.687Z,3.22
2023-05-04T14:52:43.064Z,2.85
2023-05-04T14:55:11.767Z,2.90
2023-05-04T14:57:39.755Z,2.90
2023-05-04T15:00:09.583Z,3.40
2023-05-04T15:02:41.731Z,2.78
2023-05-04T15:05:12.720Z,3.15
2023-05-04T15:07:40.718Z,3.65
2023-05-04T15:10:10.601Z,3.15
2023-05-04T15:12:40.058Z,3.63
2023-05-04T15:15:09.002Z,3.10
2023-05-04T15:17:37.029Z,3.42
2023-05-04T15:20:06.920Z,3.05
2023-05-04T15:22:35.302Z,3.20
2023-05-04T15:25:04.343Z,4.80
2023-05-04T15:27:32.220Z,3.15
2023-05-04T15:30:00.662Z,3.25
2023-05-04T15:32:28.540Z,3.65
2023-05-04T15:35:04.467Z,2.90
2023-05-04T15:37:33.009Z,3.85
2023-05-04T15:40:02.352Z,3.05
2023-05-04T15:42:30.805Z,3.50
2023-05-04T15:44:59.043Z,3.60
2023-05-04T15:47:26.984Z,3.95
2023-05-04T15:49:56.208Z,4.13
2023-05-04T15:52:24.201Z,3.13
2023-05-04T15:54:52.465Z,3.08
2023-05-04T15:57:20.383Z,3.47
2023-05-04T15:59:50.321Z,4.63
2023-05-04T16:02:18.237Z,3.65
2023-05-04T16:04:46.586Z,3.60
2023-05-04T16:07:15.020Z,5.25
2023-05-04T16:09:43.468Z,3.50
2023-05-04T16:12:11.389Z,3.22
2023-05-04T16:14:40.881Z,3.22
2023-05-04T16:17:09.583Z,4.10
2023-05-04T16:19:37.878Z,3.85
2023-05-04T16:22:05.910Z,3.38
2023-05-04T16:24:34.650Z,3.10
2023-05-04T16:27:03.587Z,5.00
2023-05-04T16:29:31.871Z,3.90
2023-05-04T16:31:59.914Z,4.18
2023-05-04T16:34:28.353Z,3.17
2023-05-04T16:36:56.392Z,3.30
2023-05-04T16:39:30.529Z,2.92
2023-05-04T16:41:58.975Z,3.30
2023-05-04T16:44:27.354Z,3.00
2023-05-04T16:46:55.575Z,2.97
2023-05-04T16:49:24.131Z,4.07
2023-05-04T16:51:55.915Z,4.55
2023-05-04T16:54:24.691Z,3.80
2023-05-04T16:56:53.011Z,3.28
2023-05-04T16:59:21.412Z,3.65
2023-05-04T17:01:49.562Z,3.72
2023-05-04T17:04:18.353Z,4.40
2023-05-04T17:06:46.434Z,4.30
2023-05-04T17:09:14.744Z,4.07
2023-05-04T17:11:42.873Z,3.38
2023-05-04T17:14:11.413Z,3.42
2023-05-04T17:16:39.696Z,3.17
2023-05-04T17:19:10.766Z,3.67
2023-05-04T17:21:39.349Z,3.53
2023-05-04T17:24:07.902Z,3.35
2023-05-04T17:26:35.938Z,4.38
2023-05-04T17:29:04.829Z,3.85
2023-05-04T17:31:32.854Z,4.03
2023-05-04T17:34:01.472Z,3.42
2023-05-04T17:36:29.684Z,3.80
2023-05-04T17:38:58.614Z,5.60
2023-05-04T17:41:26.906Z,4.05
2023-05-04T17:43:56.415Z,3.95
2023-05-04T17:46:25.250Z,3.13
2023-05-04T17:48:55.024Z,3.38
2023-05-04T17:51:23.234Z,3.78
2023-05-04T17:53:51.674Z,3.00
2023-05-04T17:56:21.694Z,3.45
2023-05-04T17:58:50.012Z,2.97
2023-05-04T18:01:18.090Z,3.10
2023-05-04T18:03:46.783Z,3.15
2023-05-04T18:06:15.093Z,3.35
2023-05-04T18:08:43.483Z,2.83
2023-05-04T18:11:12.444Z,3.08
2023-05-04T18:13:41.071Z,3.00
2023-05-04T18:16:09.266Z,3.22
2023-05-04T18:18:37.904Z,3.40
2023-05-04T18:21:05.953Z,2.97
2023-05-04T18:23:34.323Z,3.00
2023-05-04T18:26:02.395Z,3.20
2023-05-04T18:28:31.039Z,3.25
2023-05-04T18:30:59.146Z,2.97
2023-05-04T18:33:27.634Z,3.47
2023-05-04T18:35:55.658Z,3.95
2023-05-04T18:38:26.524Z,3.47
2023-05-04T18:40:54.582Z,3.63
2023-05-04T18:43:22.993Z,3.65
2023-05-04T18:45:51.098Z,4.20
2023-05-04T18:48:19.523Z,3.50
2023-05-04T18:50:57.343Z,4.53
2023-05-04T18:53:26.734Z,5.13
2023-05-04T18:56:05.223Z,3.53
2023-05-04T18:58:34.457Z,3.78
2023-05-04T19:01:02.854Z,3.88
2023-05-04T19:03:31.294Z,3.67
2023-05-04T19:05:59.348Z,4.07
2023-05-04T19:08:27.654Z,4.03
2023-05-04T19:10:59.412Z,3.78
2023-05-04T19:13:28.586Z,3.78
2023-05-04T19:15:56.732Z,3.55
2023-05-04T19:18:25.201Z,3.38
2023-05-04T19:20:54.762Z,3.80
2023-05-04T19:23:23.149Z,3.78
2023-05-04T19:25:51.388Z,3.75
2023-05-04T19:28:20.342Z,3.70
2023-05-04T19:30:49.468Z,4.47
2023-05-04T19:33:18.020Z,4.13
2023-05-04T19:35:46.300Z,4.22
2023-05-04T19:38:14.884Z,4.25
2023-05-04T19:40:43.257Z,4.35
2023-05-04T19:43:11.598Z,4.40
2023-05-04T19:45:40.032Z,4.55
2023-05-04T19:48:08.528Z,5.20
2023-05-04T19:50:36.511Z,5.32
2023-05-04T19:53:04.915Z,4.72
2023-05-04T19:55:33.350Z,4.55
2023-05-04T19:58:02.465Z,4.53
2023-05-04T20:00:31.269Z,4.43
2023-05-04T20:02:59.770Z,4.68
2023-05-04T20:05:27.896Z,5.30
2023-05-04T20:07:56.736Z,4.90
2023-05-04T20:10:24.820Z,5.35
2023-05-04T20:12:53.262Z,4.78
2023-05-04T20:15:21.732Z,4.55
2023-05-04T20:17:50.168Z,5.47
2023-05-04T20:20:20.628Z,5.78
2023-05-04T20:22:52.587Z,6.30
2023-05-04T20:25:20.827Z,5.28
2023-05-04T20:27:49.423Z,4.43
2023-05-04T20:30:18.185Z,4.20
2023-05-04T20:32:48.609Z,4.95
2023-05-04T20:35:17.339Z,3.60
2023-05-04T20:37:45.804Z,4.65
2023-05-04T20:40:16.813Z,3.83
2023-05-04T20:42:45.101Z,3.83
2023-05-04T20:45:13.534Z,4.50
2023-05-04T20:47:42.906Z,4.40
2023-05-04T20:50:12.201Z,4.53
2023-05-04T20:52:40.478Z,4.03
2023-05-04T20:55:09.391Z,7.80
2023-05-04T20:57:37.734Z,8.68
2023-05-04T21:00:07.285Z,8.63
2023-05-04T21:02:36.234Z,9.48
2023-05-04T21:05:04.760Z,7.13
2023-05-04T21:07:33.286Z,5.82
2023-05-04T21:10:01.317Z,4.57
2023-05-04T21:12:30.229Z,5.50
2023-05-04T21:14:59.049Z,4.63
2023-05-04T21:17:27.634Z,4.30
2023-05-04T21:19:55.626Z,4.72
2023-05-04T21:22:23.930Z,4.22
2023-05-04T21:24:52.103Z,5.63
2023-05-04T21:27:20.367Z,6.35
2023-05-04T21:29:48.383Z,5.53
2023-05-04T21:32:16.752Z,5.32
2023-05-04T21:34:44.728Z,5.35
2023-05-04T21:37:13.343Z,5.38
2023-05-04T21:39:41.554Z,5.60
2023-05-04T21:42:10.044Z,5.78
2023-05-04T21:44:38.178Z,5.60
2023-05-04T21:47:07.430Z,4.95
2023-05-04T21:50:22.454Z,4.75
2023-05-04T21:52:51.134Z,5.00
2023-05-04T21:55:19.923Z,5.47
2023-05-04T21:57:48.927Z,6.20
2023-05-04T22:00:20.719Z,5.75
2023-05-04T22:02:49.309Z,5.88
2023-05-04T22:05:22.369Z,5.43
2023-05-04T22:10:19.195Z,5.70
2023-05-04T22:12:47.919Z,5.50
2023-05-04T22:15:16.635Z,5.00
2023-05-04T22:17:45.636Z,5.05
2023-05-04T22:20:14.038Z,4.78
2023-05-04T22:22:42.676Z,4.43
2023-05-04T22:25:11.302Z,4.65
2023-05-04T22:27:39.956Z,4.63
2023-05-04T22:30:08.948Z,4.90
2023-05-04T22:32:38.291Z,5.03
2023-05-04T22:35:06.841Z,5.22
2023-05-04T22:37:35.501Z,4.70
2023-05-04T22:40:07.715Z,4.25
2023-05-04T22:42:36.953Z,4.90
2023-05-04T22:45:05.623Z,4.55
2023-05-04T22:47:34.230Z,4.35
2023-05-04T22:50:02.485Z,4.63
2023-05-04T22:52:31.442Z,4.40
2023-05-04T22:54:59.613Z,4.15
2023-05-04T22:57:28.292Z,4.20
2023-05-04T22:59:56.717Z,4.70
2023-05-04T23:02:25.695Z,4.95
2023-05-04T23:04:54.198Z,5.35
2023-05-04T23:07:22.784Z,4.60
2023-05-04T23:09:50.992Z,5.18
2023-05-04T23:12:19.842Z,5.97
2023-05-04T23:14:52.597Z,5.60
2023-05-04T23:17:24.576Z,5.55
2023-05-04T23:19:52.805Z,5.95
2023-05-04T23:22:21.662Z,5.57
2023-05-04T23:24:49.849Z,5.57
2023-05-04T23:27:18.936Z,6.35
2023-05-04T23:29:47.111Z,6.38
2023-05-04T23:32:15.942Z,5.57
2023-05-04T23:34:44.170Z,6.45
2023-05-04T23:37:12.670Z,5.72
2023-05-04T23:39:41.029Z,6.22
2023-05-04T23:42:09.451Z,6.45
2023-05-04T23:44:37.705Z,5.45
2023-05-04T23:47:06.380Z,6.72
2023-05-04T23:49:34.625Z,5.32
2023-05-04T23:52:03.179Z,5.20
2023-05-04T23:54:32.004Z,5.55
2023-05-04T23:57:00.782Z,5.40
2023-05-04T23:59:28.951Z,5.30
